sensor_id;sensor_type;location;lat;lon;timestamp;pressure;altitude;pressure_sealevel;temperature;humidity
68199;BME280;55021;51.554;17.044;2023-03-01T00:03:41;102137.53;;;-2.39;75.94
68199;BME280;55021;51.554;17.044;2023-03-01T00:18:44;102138.72;;;-2.55;74.67
68199;BME280;55021;51.554;17.044;2023-03-01T00:33:47;102135.97;;;-2.49;74.47
68199;BME280;55021;51.554;17.044;2023-03-01T00:48:50;102117.38;;;-2.48;75.49
68199;BME280;55021;51.554;17.044;2023-03-01T01:03:54;102116.53;;;-2.50;74.27
68199;BME280;55021;51.554;17.044;2023-03-01T01:18:57;102066.69;;;-3.69;76.70
68199;BME280;55021;51.554;17.044;2023-03-01T01:34:01;102032.03;;;-3.52;75.51
68199;BME280;55021;51.554;17.044;2023-03-01T01:49:07;102055.78;;;-3.49;77.30
68199;BME280;55021;51.554;17.044;2023-03-01T02:04:16;102069.63;;;-2.88;73.82
68199;BME280;55021;51.554;17.044;2023-03-01T02:19:29;102076.19;;;-3.56;77.61
68199;BME280;55021;51.554;17.044;2023-03-01T02:34:34;102071.88;;;-3.12;74.08
68199;BME280;55021;51.554;17.044;2023-03-01T02:49:40;102091.03;;;-3.47;75.86
68199;BME280;55021;51.554;17.044;2023-03-01T03:04:45;102059.09;;;-3.37;75.15
68199;BME280;55021;51.554;17.044;2023-03-01T03:19:48;102058.66;;;-4.16;78.33
68199;BME280;55021;51.554;17.044;2023-03-01T03:34:51;102059.09;;;-3.37;73.88
68199;BME280;55021;51.554;17.044;2023-03-01T03:49:55;102014.44;;;-4.65;77.90
68199;BME280;55021;51.554;17.044;2023-03-01T04:04:58;102057.53;;;-4.00;76.08
68199;BME280;55021;51.554;17.044;2023-03-01T04:20:01;102028.03;;;-3.76;73.22
68199;BME280;55021;51.554;17.044;2023-03-01T04:35:04;101987.09;;;-4.59;76.09
68199;BME280;55021;51.554;17.044;2023-03-01T04:50:07;102005.53;;;-4.01;74.72
68199;BME280;55021;51.554;17.044;2023-03-01T05:05:10;102027.25;;;-3.81;72.10
68199;BME280;55021;51.554;17.044;2023-03-01T05:20:14;101988.56;;;-3.86;73.78
68199;BME280;55021;51.554;17.044;2023-03-01T05:35:17;101981.91;;;-3.60;73.49
68199;BME280;55021;51.554;17.044;2023-03-01T05:50:21;101988.38;;;-3.74;73.51
68199;BME280;55021;51.554;17.044;2023-03-01T06:05:35;101992.81;;;-3.29;73.32
68199;BME280;55021;51.554;17.044;2023-03-01T06:21:07;102008.41;;;-4.15;76.10
68199;BME280;55021;51.554;17.044;2023-03-01T06:51:55;102020.22;;;-2.89;77.04
68199;BME280;55021;51.554;17.044;2023-03-01T07:06:58;101994.91;;;-1.52;74.56
68199;BME280;55021;51.554;17.044;2023-03-01T07:22:00;102012.63;;;-0.60;73.87
68199;BME280;55021;51.554;17.044;2023-03-01T07:37:03;102010.25;;;0.16;72.71
68199;BME280;55021;51.554;17.044;2023-03-01T07:52:05;101989.78;;;0.69;72.29
68199;BME280;55021;51.554;17.044;2023-03-01T08:07:08;101950.69;;;1.40;70.59
68199;BME280;55021;51.554;17.044;2023-03-01T08:22:11;101953.28;;;2.29;68.81
68199;BME280;55021;51.554;17.044;2023-03-01T08:37:14;101843.72;;;2.50;66.98
68199;BME280;55021;51.554;17.044;2023-03-01T08:52:17;101904.50;;;3.59;64.66
68199;BME280;55021;51.554;17.044;2023-03-01T09:07:20;101842.19;;;3.57;60.36
68199;BME280;55021;51.554;17.044;2023-03-01T09:22:22;101889.63;;;3.35;60.25
68199;BME280;55021;51.554;17.044;2023-03-01T09:37:26;101926.34;;;4.21;59.95
68199;BME280;55021;51.554;17.044;2023-03-01T09:52:34;101952.47;;;5.02;56.13
68199;BME280;55021;51.554;17.044;2023-03-01T10:07:45;101927.19;;;4.73;54.19
68199;BME280;55021;51.554;17.044;2023-03-01T10:22:51;101861.81;;;4.76;55.59
68199;BME280;55021;51.554;17.044;2023-03-01T10:38:03;101883.00;;;5.76;52.62
68199;BME280;55021;51.554;17.044;2023-03-01T10:53:20;101876.88;;;6.19;47.20
68199;BME280;55021;51.554;17.044;2023-03-01T11:08:39;101878.00;;;6.45;47.53
68199;BME280;55021;51.554;17.044;2023-03-01T11:23:43;101834.69;;;6.05;47.47
68199;BME280;55021;51.554;17.044;2023-03-01T11:38:48;101865.38;;;6.17;48.78
68199;BME280;55021;51.554;17.044;2023-03-01T11:54:17;101855.13;;;6.08;46.19
68199;BME280;55021;51.554;17.044;2023-03-01T12:09:38;101841.81;;;6.06;46.67
68199;BME280;55021;51.554;17.044;2023-03-01T12:55:44;101785.53;;;6.61;48.05
68199;BME280;55021;51.554;17.044;2023-03-01T13:11:23;101769.56;;;7.01;46.66
68199;BME280;55021;51.554;17.044;2023-03-01T13:42:51;101740.34;;;6.95;45.25
68199;BME280;55021;51.554;17.044;2023-03-01T13:58:19;101715.88;;;7.38;44.30
68199;BME280;55021;51.554;17.044;2023-03-01T14:13:41;101708.13;;;7.34;42.74
68199;BME280;55021;51.554;17.044;2023-03-01T14:28:57;101693.84;;;6.66;45.01
68199;BME280;55021;51.554;17.044;2023-03-01T14:44:05;101679.31;;;6.82;44.52
68199;BME280;55021;51.554;17.044;2023-03-01T14:59:09;101659.06;;;7.16;42.31
68199;BME280;55021;51.554;17.044;2023-03-01T15:14:28;101659.25;;;7.40;41.24
68199;BME280;55021;51.554;17.044;2023-03-01T15:29:32;101685.16;;;6.75;45.31
68199;BME280;55021;51.554;17.044;2023-03-01T16:00:32;101639.47;;;6.20;46.91
68199;BME280;55021;51.554;17.044;2023-03-01T16:15:35;101646.31;;;4.78;51.41
68199;BME280;55021;51.554;17.044;2023-03-01T16:30:46;101704.38;;;4.15;52.62
68199;BME280;55021;51.554;17.044;2023-03-01T16:46:01;101704.84;;;3.56;55.98
68199;BME280;55021;51.554;17.044;2023-03-01T17:01:32;101715.41;;;2.89;58.98
68199;BME280;55021;51.554;17.044;2023-03-01T17:17:13;101698.72;;;1.91;61.53
68199;BME280;55021;51.554;17.044;2023-03-01T17:32:18;101646.84;;;0.97;64.18
68199;BME280;55021;51.554;17.044;2023-03-01T17:47:36;101646.44;;;0.43;65.40
68199;BME280;55021;51.554;17.044;2023-03-01T18:02:39;101677.41;;;0.45;65.28
68199;BME280;55021;51.554;17.044;2023-03-01T18:17:41;101637.22;;;0.29;65.52
68199;BME280;55021;51.554;17.044;2023-03-01T18:32:44;101689.03;;;0.43;67.04
68199;BME280;55021;51.554;17.044;2023-03-01T18:47:46;101690.63;;;0.47;66.54
68199;BME280;55021;51.554;17.044;2023-03-01T19:02:49;101627.06;;;-0.29;66.11
68199;BME280;55021;51.554;17.044;2023-03-01T19:17:51;101679.69;;;0.09;66.98
68199;BME280;55021;51.554;17.044;2023-03-01T19:32:54;101633.97;;;-0.73;71.33
68199;BME280;55021;51.554;17.044;2023-03-01T19:47:56;101684.75;;;-0.31;69.71
68199;BME280;55021;51.554;17.044;2023-03-01T20:02:59;101579.16;;;-1.25;71.25
68199;BME280;55021;51.554;17.044;2023-03-01T20:18:02;101599.25;;;-0.92;70.22
68199;BME280;55021;51.554;17.044;2023-03-01T20:33:04;101597.44;;;-1.16;73.00
68199;BME280;55021;51.554;17.044;2023-03-01T20:48:07;101669.81;;;-0.60;70.76
68199;BME280;55021;51.554;17.044;2023-03-01T21:03:10;101609.91;;;-1.18;70.61
68199;BME280;55021;51.554;17.044;2023-03-01T21:18:12;101615.91;;;-1.13;71.36
68199;BME280;55021;51.554;17.044;2023-03-01T21:33:15;101660.84;;;-1.07;71.29
68199;BME280;55021;51.554;17.044;2023-03-01T21:48:18;101590.69;;;-1.78;73.95
68199;BME280;55021;51.554;17.044;2023-03-01T22:03:20;101653.94;;;-1.38;72.37
68199;BME280;55021;51.554;17.044;2023-03-01T22:18:23;101627.09;;;-1.29;72.59
68199;BME280;55021;51.554;17.044;2023-03-01T22:33:25;101604.28;;;-1.89;74.36
68199;BME280;55021;51.554;17.044;2023-03-01T22:48:28;101568.19;;;-2.22;74.52
68199;BME280;55021;51.554;17.044;2023-03-01T23:03:30;101644.00;;;-1.87;76.10
68199;BME280;55021;51.554;17.044;2023-03-01T23:18:33;101654.19;;;-1.20;73.70
68199;BME280;55021;51.554;17.044;2023-03-01T23:33:36;101650.13;;;-1.30;73.35
68199;BME280;55021;51.554;17.044;2023-03-01T23:48:39;101565.75;;;-1.73;73.95
